Terminal Aerodrome Forecast
Issued by NWS

Home | Current Version | Previous Version | Text Only | Print | Product List | Glossary On
Versions: 1 2 3 4 5 6 7 8 9 10 11 12 13 14
000
FTUS42 KGSP 030536
TAFGMU
TAF
KGMU 030536Z 0306/0406 00000KT P6SM SCT060 BKN120
     FM031500 03005KT P6SM SCT070 BKN150
     FM040000 33003KT P6SM SCT100=

USA.gov is the U.S. government's official web portal to all federal, state and local government web resources and services.